createdAt,value
2018-10-12T00:01:16.876Z,24.63
2018-10-12T00:03:46.601Z,24.66
2018-10-12T00:06:15.873Z,24.65
2018-10-12T00:08:45.799Z,24.63
2018-10-12T00:11:16.201Z,24.66
2018-10-12T00:13:46.585Z,24.65
2018-10-12T00:16:16.655Z,24.48
2018-10-12T00:18:45.867Z,24.64
2018-10-12T00:21:15.613Z,24.64
2018-10-12T00:23:44.850Z,24.62
2018-10-12T00:26:14.650Z,24.63
2018-10-12T00:28:43.870Z,24.56
2018-10-12T00:31:13.922Z,24.61
2018-10-12T00:33:43.897Z,24.59
2018-10-12T00:36:13.810Z,24.62
2018-10-12T00:38:43.603Z,24.62
2018-10-12T00:41:12.883Z,24.58
2018-10-12T00:43:42.810Z,24.57
2018-10-12T00:46:12.186Z,24.59
2018-10-12T00:48:41.657Z,24.60
2018-10-12T00:51:10.806Z,24.59
2018-10-12T00:53:40.624Z,24.58
2018-10-12T00:56:09.831Z,24.58
2018-10-12T00:58:39.696Z,24.58
2018-10-12T01:01:08.927Z,24.57
2018-10-12T01:03:38.762Z,24.59
2018-10-12T01:06:08.050Z,24.57
2018-10-12T01:08:37.746Z,24.59
2018-10-12T01:11:06.921Z,24.61
2018-10-12T01:13:36.637Z,24.57
2018-10-12T01:16:05.837Z,24.58
2018-10-12T01:18:35.171Z,24.57
2018-10-12T01:21:03.817Z,24.56
2018-10-12T01:23:33.220Z,24.58
2018-10-12T01:26:01.862Z,24.59
2018-10-12T01:28:31.734Z,24.55
2018-10-12T01:31:01.834Z,24.54
2018-10-12T01:33:31.625Z,24.54
2018-10-12T01:35:59.866Z,24.57
2018-10-12T01:38:29.354Z,24.50
2018-10-12T01:40:58.787Z,24.54
2018-10-12T01:43:27.853Z,24.53
2018-10-12T01:46:30.590Z,24.55
2018-10-12T01:48:57.804Z,24.58
2018-10-12T01:51:25.755Z,24.55
2018-10-12T01:53:53.581Z,24.58
2018-10-12T01:56:21.266Z,24.56
2018-10-12T01:58:48.984Z,24.56
2018-10-12T02:01:16.799Z,24.54
2018-10-12T02:03:45.054Z,24.53
2018-10-12T02:06:12.413Z,24.52
2018-10-12T02:08:40.206Z,24.54
2018-10-12T02:11:08.047Z,24.52
2018-10-12T02:13:35.414Z,24.49
2018-10-12T02:16:03.174Z,24.52
2018-10-12T02:18:31.224Z,24.48
2018-10-12T02:20:59.280Z,24.50
2018-10-12T02:23:27.062Z,24.49
2018-10-12T02:25:54.877Z,24.50
2018-10-12T02:28:22.714Z,24.51
2018-10-12T02:30:50.539Z,24.50
2018-10-12T02:33:18.606Z,24.49
2018-10-12T02:35:46.301Z,24.50
2018-10-12T02:38:14.218Z,24.46
2018-10-12T02:40:41.942Z,24.48
2018-10-12T02:43:09.689Z,24.46
2018-10-12T02:45:37.710Z,24.42
2018-10-12T02:48:05.883Z,24.37
2018-10-12T02:50:33.699Z,24.47
2018-10-12T02:53:01.961Z,24.21
2018-10-12T02:55:29.393Z,24.47
2018-10-12T02:57:57.354Z,24.45
2018-10-12T03:00:25.179Z,24.44
2018-10-12T03:02:52.967Z,24.47
2018-10-12T03:05:20.498Z,24.44
2018-10-12T03:07:48.386Z,24.44
2018-10-12T03:10:16.214Z,24.45
2018-10-12T03:12:43.858Z,24.44
2018-10-12T03:15:11.839Z,24.42
2018-10-12T03:17:39.696Z,24.42
2018-10-12T03:20:07.490Z,24.43
2018-10-12T03:22:35.327Z,24.42
2018-10-12T03:25:03.050Z,24.41
2018-10-12T03:27:35.761Z,24.43
2018-10-12T03:30:03.787Z,24.40
2018-10-12T03:32:33.886Z,24.41
2018-10-12T03:35:03.652Z,24.41
2018-10-12T03:37:32.998Z,23.96
2018-10-12T03:40:02.646Z,24.31
2018-10-12T03:42:33.791Z,24.38
2018-10-12T03:45:03.826Z,24.39
2018-10-12T03:47:33.794Z,24.40
2018-10-12T03:52:43.768Z,24.37
2018-10-12T03:55:11.623Z,24.36
2018-10-12T03:57:39.597Z,24.37
2018-10-12T04:00:07.460Z,24.35
2018-10-12T04:02:35.229Z,24.36
2018-10-12T04:05:03.038Z,24.36
2018-10-12T04:07:32.758Z,24.36
2018-10-12T04:10:02.036Z,24.33
2018-10-12T04:12:31.681Z,24.22
2018-10-12T04:15:00.773Z,24.34
2018-10-12T04:17:29.945Z,24.34
2018-10-12T04:19:59.721Z,24.34
2018-10-12T04:24:48.828Z,24.33
2018-10-12T04:27:18.849Z,24.34
2018-10-12T04:29:48.732Z,24.31
2018-10-12T04:32:17.907Z,24.32
2018-10-12T04:34:47.905Z,24.32
2018-10-12T04:37:17.827Z,24.32
2018-10-12T04:39:55.843Z,24.35
2018-10-12T04:42:25.822Z,24.29
2018-10-12T04:44:55.294Z,24.32
2018-10-12T04:47:26.967Z,24.32
2018-10-12T04:49:56.843Z,24.27
2018-10-12T04:52:27.849Z,24.30
2018-10-12T04:54:57.711Z,24.28
2018-10-12T04:57:26.876Z,24.28
2018-10-12T04:59:56.801Z,24.25
2018-10-12T05:02:25.993Z,24.29
2018-10-12T05:04:55.799Z,24.22
2018-10-12T05:07:25.783Z,24.27
2018-10-12T05:09:55.182Z,24.27
2018-10-12T05:14:22.621Z,24.31
2018-10-12T05:16:51.797Z,24.29
2018-10-12T05:19:21.634Z,24.28
2018-10-12T05:21:50.931Z,24.10
2018-10-12T05:25:58.877Z,24.30
2018-10-12T05:28:29.855Z,24.32
2018-10-12T05:31:00.618Z,24.28
2018-10-12T05:33:29.782Z,23.80
2018-10-12T05:37:11.207Z,24.27
2018-10-12T05:39:40.691Z,24.26
2018-10-12T05:42:09.893Z,24.26
2018-10-12T05:46:28.860Z,24.30
2018-10-12T05:49:16.810Z,24.35
2018-10-12T05:53:33.938Z,23.82
2018-10-12T05:56:02.850Z,24.30
2018-10-12T05:58:32.850Z,24.28
2018-10-12T06:01:01.847Z,24.29
2018-10-12T06:03:31.537Z,24.30
2018-10-12T06:06:00.855Z,24.29
2018-10-12T06:08:30.641Z,24.28
2018-10-12T06:11:03.786Z,24.28
2018-10-12T06:13:33.762Z,24.29
2018-10-12T06:16:02.961Z,24.29
2018-10-12T06:18:31.806Z,24.31
2018-10-12T06:21:01.856Z,24.28
2018-10-12T06:23:31.687Z,24.27
2018-10-12T06:26:01.213Z,24.26
2018-10-12T06:28:30.837Z,24.27
2018-10-12T06:31:00.790Z,24.28
2018-10-12T06:33:30.641Z,24.26
2018-10-12T06:36:00.754Z,24.28
2018-10-12T06:38:30.869Z,24.29
2018-10-12T06:41:00.766Z,24.31
2018-10-12T06:43:30.319Z,24.28
2018-10-12T06:45:59.939Z,24.28
2018-10-12T06:48:28.940Z,24.25
2018-10-12T06:50:58.744Z,24.24
2018-10-12T06:53:28.222Z,24.31
2018-10-12T06:55:58.922Z,24.27
2018-10-12T06:58:28.969Z,24.29
2018-10-12T07:00:59.998Z,24.28
2018-10-12T07:03:29.971Z,24.38
2018-10-12T07:08:17.914Z,24.36
2018-10-12T07:10:47.922Z,24.51
2018-10-12T07:13:17.978Z,24.54
2018-10-12T07:15:49.923Z,24.56
2018-10-12T07:18:19.952Z,24.56
2018-10-12T07:20:49.938Z,24.58
2018-10-12T07:23:19.946Z,24.58
2018-10-12T07:25:49.943Z,24.59
2018-10-12T07:28:19.973Z,24.60
2018-10-12T07:30:50.014Z,24.63
2018-10-12T07:33:18.984Z,24.69
2018-10-12T07:35:48.962Z,24.72
2018-10-12T07:38:18.983Z,24.77
2018-10-12T07:40:49.023Z,24.72
2018-10-12T07:43:19.023Z,24.85
2018-10-12T07:45:48.984Z,24.86
2018-10-12T07:48:19.166Z,24.87
2018-10-12T07:50:49.862Z,24.80
2018-10-12T07:53:20.069Z,24.90
2018-10-12T07:57:09.702Z,24.96
2018-10-12T07:59:38.048Z,24.98
2018-10-12T08:02:07.002Z,24.95
2018-10-12T08:04:37.010Z,24.82
2018-10-12T08:07:07.007Z,25.02
2018-10-12T08:09:37.061Z,25.05
2018-10-12T08:12:07.018Z,25.04
2018-10-12T08:14:37.006Z,25.09
2018-10-12T08:18:31.939Z,25.10
2018-10-12T08:21:00.622Z,25.12
2018-10-12T08:23:28.795Z,25.11
2018-10-12T08:25:56.607Z,25.14
2018-10-12T08:28:26.205Z,25.17
2018-10-12T08:30:56.053Z,25.10
2018-10-12T08:33:26.201Z,25.15
2018-10-12T08:35:56.019Z,25.17
2018-10-12T08:38:26.046Z,25.18
2018-10-12T08:40:56.043Z,25.23
2018-10-12T08:43:26.038Z,24.83
2018-10-12T08:45:56.021Z,25.18
2018-10-12T08:48:25.997Z,25.29
2018-10-12T08:50:56.026Z,25.25
2018-10-12T08:53:26.034Z,25.32
2018-10-12T08:55:56.039Z,25.32
2018-10-12T08:58:26.990Z,25.38
2018-10-12T09:00:56.981Z,25.33
2018-10-12T09:03:26.988Z,25.24
2018-10-12T09:05:56.995Z,25.34
2018-10-12T09:08:26.994Z,25.39
2018-10-12T09:10:56.978Z,25.39
2018-10-12T09:13:26.975Z,25.39
2018-10-12T09:15:57.023Z,25.41
2018-10-12T09:18:26.975Z,25.40
2018-10-12T09:20:56.968Z,25.40
2018-10-12T09:26:05.776Z,25.43
2018-10-12T09:28:33.641Z,25.46
2018-10-12T09:31:01.483Z,25.45
2018-10-12T09:33:29.318Z,25.45
2018-10-12T09:35:57.191Z,25.31
2018-10-12T09:38:25.990Z,25.50
2018-10-12T09:40:55.993Z,25.49
2018-10-12T09:43:25.989Z,25.50
2018-10-12T09:45:55.947Z,25.51
2018-10-12T09:48:25.945Z,25.49
2018-10-12T09:50:55.992Z,25.23
2018-10-12T09:56:08.870Z,24.98
2018-10-12T09:58:36.708Z,25.07
2018-10-12T10:01:10.642Z,25.20
2018-10-12T10:03:44.502Z,25.17
2018-10-12T10:06:12.473Z,25.06
2018-10-12T10:08:40.255Z,25.15
2018-10-12T10:11:08.550Z,25.19
2018-10-12T10:13:36.326Z,25.08
2018-10-12T10:16:04.217Z,25.23
2018-10-12T10:18:32.015Z,25.38
2018-10-12T10:20:59.770Z,25.23
2018-10-12T10:23:27.601Z,25.24
2018-10-12T10:25:55.436Z,25.24
2018-10-12T10:28:23.209Z,25.16
2018-10-12T10:30:50.807Z,25.18
2018-10-12T10:33:18.929Z,25.24
2018-10-12T10:35:46.751Z,25.24
2018-10-12T10:38:16.890Z,24.25
2018-10-12T10:40:45.869Z,24.82
2018-10-12T10:43:14.880Z,25.40
2018-10-12T10:45:44.845Z,25.32
2018-10-12T10:48:14.672Z,25.31
2018-10-12T10:50:43.898Z,25.47
2018-10-12T10:53:12.963Z,25.45
2018-10-12T10:55:41.888Z,25.42
2018-10-12T10:58:11.782Z,25.37
2018-10-12T11:03:03.957Z,25.25
2018-10-12T11:05:33.991Z,25.35
2018-10-12T11:08:03.958Z,25.32
2018-10-12T11:10:33.967Z,25.30
2018-10-12T11:13:04.043Z,25.39
2018-10-12T11:15:33.974Z,25.26
2018-10-12T11:18:03.885Z,25.37
2018-10-12T11:20:33.927Z,25.43
2018-10-12T11:23:03.939Z,25.49
2018-10-12T11:25:33.994Z,25.49
2018-10-12T11:28:03.951Z,25.55
2018-10-12T11:30:33.954Z,25.58
2018-10-12T11:33:54.942Z,25.80
2018-10-12T11:36:24.921Z,25.84
2018-10-12T11:38:54.989Z,25.86
2018-10-12T11:41:24.967Z,25.86
2018-10-12T11:43:54.951Z,25.87
2018-10-12T11:46:24.938Z,25.93
2018-10-12T11:48:55.643Z,25.93
2018-10-12T11:51:25.030Z,25.97
2018-10-12T11:53:54.922Z,25.98
2018-10-12T11:56:24.899Z,25.97
2018-10-12T11:58:53.973Z,26.01
2018-10-12T12:01:24.071Z,26.07
2018-10-12T12:04:20.570Z,26.08
2018-10-12T12:06:49.950Z,26.16
2018-10-12T12:09:19.985Z,26.07
2018-10-12T12:11:49.993Z,26.12
2018-10-12T12:14:20.008Z,25.78
2018-10-12T12:16:50.480Z,25.79
2018-10-12T12:19:20.983Z,25.86
2018-10-12T12:21:50.985Z,25.96
2018-10-12T12:25:32.973Z,26.07
2018-10-12T12:28:02.958Z,26.10
2018-10-12T12:30:33.501Z,26.16
2018-10-12T12:33:02.983Z,26.04
2018-10-12T12:35:33.296Z,25.75
2018-10-12T12:38:03.029Z,25.90
2018-10-12T12:40:32.970Z,25.90
2018-10-12T12:43:02.930Z,25.21
2018-10-12T12:45:32.873Z,25.91
2018-10-12T12:48:03.129Z,25.93
2018-10-12T12:50:32.874Z,25.94
2018-10-12T12:53:01.890Z,25.94
2018-10-12T12:55:30.938Z,26.05
2018-10-12T12:58:00.950Z,26.17
2018-10-12T13:00:34.012Z,26.10
2018-10-12T13:03:03.930Z,26.21
2018-10-12T13:05:33.958Z,26.34
2018-10-12T13:08:03.953Z,26.34
2018-10-12T13:10:33.965Z,26.13
2018-10-12T13:13:03.995Z,26.25
2018-10-12T13:15:35.030Z,26.18
2018-10-12T13:18:04.965Z,26.06
2018-10-12T13:21:52.749Z,26.35
2018-10-12T13:24:20.803Z,26.40
2018-10-12T13:26:48.655Z,26.43
2018-10-12T13:29:15.778Z,26.40
2018-10-12T13:31:43.634Z,26.23
2018-10-12T13:34:11.423Z,26.09
2018-10-12T13:36:39.227Z,25.95
2018-10-12T13:39:10.314Z,26.13
2018-10-12T13:41:38.439Z,26.33
2018-10-12T13:44:06.543Z,26.47
2018-10-12T13:46:34.624Z,26.51
2018-10-12T13:49:02.349Z,26.53
2018-10-12T13:51:30.223Z,26.51
2018-10-12T13:53:57.970Z,26.56
2018-10-12T13:56:25.907Z,26.51
2018-10-12T13:58:54.362Z,26.46
2018-10-12T14:01:22.169Z,26.19
2018-10-12T14:03:50.050Z,26.12
2018-10-12T14:06:17.978Z,26.37
2018-10-12T14:08:45.890Z,26.50
2018-10-12T14:11:13.777Z,26.52
2018-10-12T14:13:41.819Z,26.59
2018-10-12T14:16:09.702Z,26.60
2018-10-12T14:18:37.655Z,26.64
2018-10-12T14:21:05.616Z,26.64
2018-10-12T14:24:02.759Z,26.55
2018-10-12T14:26:31.968Z,26.66
2018-10-12T14:29:00.809Z,26.69
2018-10-12T14:31:30.734Z,26.70
2018-10-12T14:34:00.807Z,26.74
2018-10-12T14:36:30.838Z,26.53
2018-10-12T14:39:00.751Z,26.31
2018-10-12T14:41:30.635Z,26.16
2018-10-12T14:45:18.550Z,26.08
2018-10-12T14:47:48.961Z,26.07
2018-10-12T14:50:18.653Z,26.10
2018-10-12T14:52:46.951Z,26.04
2018-10-12T14:55:16.887Z,25.98
2018-10-12T14:57:46.655Z,26.07
2018-10-12T15:00:15.808Z,26.29
2018-10-12T15:02:45.853Z,26.42
2018-10-12T15:05:15.645Z,26.48
2018-10-12T15:07:44.874Z,26.36
2018-10-12T15:10:14.727Z,26.52
2018-10-12T15:12:43.971Z,26.49
2018-10-12T15:15:17.900Z,26.48
2018-10-12T15:17:48.761Z,26.62
2018-10-12T15:20:17.607Z,26.67
2018-10-12T15:24:27.670Z,26.70
2018-10-12T15:26:55.511Z,26.72
2018-10-12T15:29:23.411Z,26.76
2018-10-12T15:31:51.207Z,26.62
2018-10-12T15:34:18.857Z,26.61
2018-10-12T15:36:47.833Z,26.56
2018-10-12T15:39:15.694Z,26.48
2018-10-12T15:41:43.589Z,26.28
2018-10-12T15:44:12.839Z,26.23
2018-10-12T15:46:42.815Z,26.16
2018-10-12T15:49:12.630Z,26.10
2018-10-12T15:51:41.925Z,26.29
2018-10-12T15:54:11.614Z,26.31
2018-10-12T15:56:40.840Z,26.25
2018-10-12T15:59:10.642Z,26.16
2018-10-12T16:01:39.987Z,25.91
2018-10-12T16:04:09.926Z,25.98
2018-10-12T16:06:40.803Z,26.20
2018-10-12T16:09:10.607Z,26.23
2018-10-12T16:11:39.793Z,26.26
2018-10-12T16:14:09.197Z,26.32
2018-10-12T16:16:37.967Z,26.32
2018-10-12T16:19:07.899Z,26.27
2018-10-12T16:21:37.673Z,26.17
2018-10-12T16:24:12.007Z,26.06
2018-10-12T16:26:41.827Z,25.99
2018-10-12T16:29:11.137Z,25.96
2018-10-12T16:31:40.802Z,26.00
2018-10-12T16:34:10.067Z,25.93
2018-10-12T16:37:27.789Z,25.98
2018-10-12T16:39:55.834Z,25.93
2018-10-12T16:42:23.736Z,25.96
2018-10-12T16:44:51.583Z,25.96
2018-10-12T16:47:19.754Z,25.80
2018-10-12T16:49:47.587Z,25.71
2018-10-12T16:52:15.301Z,25.62
2018-10-12T16:54:43.035Z,25.59
2018-10-12T16:57:11.306Z,25.50
2018-10-12T16:59:39.214Z,25.57
2018-10-12T17:02:06.970Z,25.64
2018-10-12T17:04:34.781Z,25.60
2018-10-12T17:07:04.160Z,25.45
2018-10-12T17:09:32.559Z,25.40
2018-10-12T17:12:00.801Z,25.42
2018-10-12T17:14:29.937Z,25.27
2018-10-12T17:16:59.579Z,25.30
2018-10-12T17:19:28.866Z,25.23
2018-10-12T17:21:58.185Z,25.09
2018-10-12T17:24:27.613Z,25.08
2018-10-12T17:26:55.833Z,25.06
2018-10-12T17:29:25.154Z,24.81
2018-10-12T17:31:54.714Z,24.99
2018-10-12T17:34:23.844Z,24.95
2018-10-12T17:36:53.090Z,24.89
2018-10-12T17:39:21.834Z,24.93
2018-10-12T17:41:49.790Z,24.87
2018-10-12T17:44:18.991Z,24.75
2018-10-12T17:46:48.911Z,24.49
2018-10-12T17:49:18.628Z,24.60
2018-10-12T17:51:46.882Z,24.56
2018-10-12T17:54:16.042Z,24.49
2018-10-12T17:56:45.662Z,24.46
2018-10-12T17:59:13.739Z,24.39
2018-10-12T18:01:41.846Z,24.37
2018-10-12T18:04:10.975Z,24.42
2018-10-12T18:06:40.599Z,24.29
2018-10-12T18:09:08.795Z,24.22
2018-10-12T18:11:38.763Z,24.14
2018-10-12T18:14:08.884Z,24.09
2018-10-12T18:16:38.748Z,24.00
2018-10-12T18:19:08.867Z,23.94
2018-10-12T18:21:38.626Z,24.00
2018-10-12T18:24:07.895Z,23.90
2018-10-12T18:26:37.751Z,24.02
2018-10-12T18:29:07.027Z,24.00
2018-10-12T18:31:36.870Z,23.58
2018-10-12T18:34:06.642Z,24.01
2018-10-12T18:36:35.971Z,23.85
2018-10-12T18:39:06.870Z,23.88
2018-10-12T18:41:36.640Z,23.91
2018-10-12T18:44:05.819Z,23.67
2018-10-12T18:49:17.854Z,23.44
2018-10-12T18:51:46.368Z,23.57
2018-10-12T18:54:14.721Z,23.52
2018-10-12T18:56:43.283Z,23.53
2018-10-12T19:01:39.954Z,23.34
2018-10-12T19:04:07.919Z,23.22
2018-10-12T19:06:36.033Z,23.23
2018-10-12T19:09:08.752Z,23.30
2018-10-12T19:11:38.823Z,23.32
2018-10-12T19:14:08.543Z,23.22
2018-10-12T19:16:37.726Z,23.12
2018-10-12T19:19:07.765Z,23.10
2018-10-12T19:21:36.061Z,23.08
2018-10-12T19:24:05.702Z,23.06
2018-10-12T19:29:03.771Z,23.02
2018-10-12T19:31:33.060Z,22.94
2018-10-12T19:34:02.616Z,22.86
2018-10-12T19:36:32.615Z,22.87
2018-10-12T19:39:00.823Z,22.84
2018-10-12T19:41:30.065Z,22.72
2018-10-12T19:43:59.718Z,22.65
2018-10-12T19:46:28.872Z,22.64
2018-10-12T19:48:58.742Z,22.63
2018-10-12T19:51:28.609Z,22.52
2018-10-12T19:53:57.894Z,22.10
2018-10-12T19:56:27.572Z,22.58
2018-10-12T19:58:56.833Z,22.73
2018-10-12T20:01:26.763Z,22.78
2018-10-12T20:03:55.165Z,23.05
2018-10-12T20:06:24.853Z,23.11
2018-10-12T20:08:54.757Z,23.22
2018-10-12T20:11:23.846Z,23.29
2018-10-12T20:13:54.870Z,23.32
2018-10-12T20:16:24.773Z,23.39
2018-10-12T20:18:55.645Z,23.40
2018-10-12T20:21:25.563Z,23.40
2018-10-12T20:23:55.743Z,23.43
2018-10-12T20:26:25.722Z,23.52
2018-10-12T20:28:54.922Z,23.72
2018-10-12T20:31:24.898Z,23.88
2018-10-12T20:33:54.730Z,23.94
2018-10-12T20:36:23.965Z,23.95
2018-10-12T20:38:53.590Z,23.79
2018-10-12T20:41:21.861Z,24.00
2018-10-12T20:45:34.804Z,23.87
2018-10-12T20:48:03.959Z,23.85
2018-10-12T20:50:33.918Z,23.86
2018-10-12T20:53:03.686Z,23.88
2018-10-12T20:55:32.874Z,23.89
2018-10-12T20:58:02.216Z,23.82
2018-10-12T21:00:30.973Z,23.91
2018-10-12T21:04:28.637Z,23.93
2018-10-12T21:06:58.026Z,23.98
2018-10-12T21:11:28.987Z,23.99
2018-10-12T21:14:00.838Z,24.00
2018-10-12T21:16:30.702Z,23.85
2018-10-12T21:19:00.033Z,24.00
2018-10-12T21:21:31.746Z,24.08
2018-10-12T21:24:26.939Z,24.02
2018-10-12T21:26:58.798Z,24.08
2018-10-12T21:29:28.785Z,24.06
2018-10-12T21:31:57.606Z,24.08
2018-10-12T21:34:27.160Z,24.06
2018-10-12T21:36:57.385Z,24.11
2018-10-12T21:39:27.156Z,24.15
2018-10-12T21:41:56.741Z,24.09
2018-10-12T21:44:25.703Z,24.14
2018-10-12T21:46:54.988Z,24.17
2018-10-12T21:49:25.809Z,24.02
2018-10-12T21:51:55.478Z,23.91
2018-10-12T21:54:24.158Z,24.15
2018-10-12T21:56:54.767Z,24.17
2018-10-12T21:59:24.889Z,24.12
2018-10-12T22:01:53.943Z,23.96
2018-10-12T22:04:23.795Z,24.20
2018-10-12T22:06:54.876Z,24.16
2018-10-12T22:09:24.558Z,24.29
2018-10-12T22:11:55.561Z,24.27
2018-10-12T22:14:25.467Z,24.21
2018-10-12T22:17:38.705Z,24.29
2018-10-12T22:20:09.218Z,24.15
2018-10-12T22:22:38.114Z,24.19
2018-10-12T22:25:07.758Z,24.21
2018-10-12T22:27:36.839Z,24.22
2018-10-12T22:30:06.099Z,24.24
2018-10-12T22:32:35.778Z,24.26
2018-10-12T22:35:05.882Z,24.24
2018-10-12T22:37:37.982Z,24.18
2018-10-12T22:40:08.634Z,24.26
2018-10-12T22:42:38.932Z,24.29
2018-10-12T22:45:09.862Z,24.29
2018-10-12T22:47:41.819Z,24.28
2018-10-12T22:50:11.811Z,24.33
2018-10-12T22:54:55.855Z,24.32
2018-10-12T22:57:25.821Z,24.36
2018-10-12T22:59:54.387Z,24.39
2018-10-12T23:02:23.623Z,24.35
2018-10-12T23:04:54.579Z,24.30
2018-10-12T23:07:23.677Z,24.19
2018-10-12T23:09:52.831Z,24.28
2018-10-12T23:12:24.928Z,24.14
2018-10-12T23:14:55.503Z,24.31
2018-10-12T23:17:25.142Z,24.32
2018-10-12T23:19:56.560Z,24.37
2018-10-12T23:22:25.397Z,24.37
2018-10-12T23:26:14.987Z,24.28
2018-10-12T23:28:44.886Z,24.31
2018-10-12T23:31:14.657Z,24.33
2018-10-12T23:34:00.059Z,24.30
2018-10-12T23:36:29.534Z,24.22
2018-10-12T23:38:59.318Z,24.28
2018-10-12T23:41:28.867Z,24.29
2018-10-12T23:43:59.399Z,24.32
2018-10-12T23:46:29.790Z,24.29
2018-10-12T23:49:00.851Z,24.27
2018-10-12T23:51:31.215Z,24.31
2018-10-12T23:54:01.199Z,24.28
2018-10-12T23:56:31.694Z,24.30
